sensor_id;sensor_type;location;lat;lon;timestamp;temperature;humidity
18131;DHT22;9191;54.324;10.126;2022-12-07T00:01:47;2.60;99.90
18131;DHT22;9191;54.324;10.126;2022-12-07T00:04:15;2.60;99.90
18131;DHT22;9191;54.324;10.126;2022-12-07T00:06:43;2.50;99.90
18131;DHT22;9191;54.324;10.126;2022-12-07T00:09:11;2.50;99.90
18131;DHT22;9191;54.324;10.126;2022-12-07T00:11:40;2.50;99.90
18131;DHT22;9191;54.324;10.126;2022-12-07T00:14:10;2.50;99.90
18131;DHT22;9191;54.324;10.126;2022-12-07T00:16:37;2.50;99.90
18131;DHT22;9191;54.324;10.126;2022-12-07T00:19:04;2.60;99.90
18131;DHT22;9191;54.324;10.126;2022-12-07T00:21:33;2.60;99.90
18131;DHT22;9191;54.324;10.126;2022-12-07T00:24:00;2.60;99.90
18131;DHT22;9191;54.324;10.126;2022-12-07T00:26:28;2.60;99.90
18131;DHT22;9191;54.324;10.126;2022-12-07T00:28:55;2.70;99.90
18131;DHT22;9191;54.324;10.126;2022-12-07T00:31:23;2.60;99.90
18131;DHT22;9191;54.324;10.126;2022-12-07T00:33:50;2.70;99.90
18131;DHT22;9191;54.324;10.126;2022-12-07T00:36:18;2.70;99.90
18131;DHT22;9191;54.324;10.126;2022-12-07T00:38:46;2.70;99.90
18131;DHT22;9191;54.324;10.126;2022-12-07T00:41:14;2.70;99.90
18131;DHT22;9191;54.324;10.126;2022-12-07T00:43:41;2.70;99.90
18131;DHT22;9191;54.324;10.126;2022-12-07T00:46:08;2.80;99.90
18131;DHT22;9191;54.324;10.126;2022-12-07T00:48:35;2.80;99.90
18131;DHT22;9191;54.324;10.126;2022-12-07T00:51:02;2.90;99.90
18131;DHT22;9191;54.324;10.126;2022-12-07T00:53:29;2.90;99.90
18131;DHT22;9191;54.324;10.126;2022-12-07T00:55:58;2.90;99.90
18131;DHT22;9191;54.324;10.126;2022-12-07T00:58:24;2.90;99.90
18131;DHT22;9191;54.324;10.126;2022-12-07T01:00:51;3.00;99.90
18131;DHT22;9191;54.324;10.126;2022-12-07T01:03:18;3.20;99.90
18131;DHT22;9191;54.324;10.126;2022-12-07T01:05:49;3.00;99.90
18131;DHT22;9191;54.324;10.126;2022-12-07T01:08:15;2.90;99.90
18131;DHT22;9191;54.324;10.126;2022-12-07T01:10:42;2.90;99.90
18131;DHT22;9191;54.324;10.126;2022-12-07T01:13:10;2.90;99.90
18131;DHT22;9191;54.324;10.126;2022-12-07T01:15:38;2.80;99.90
18131;DHT22;9191;54.324;10.126;2022-12-07T01:18:05;2.70;99.90
18131;DHT22;9191;54.324;10.126;2022-12-07T01:20:32;2.70;99.90
18131;DHT22;9191;54.324;10.126;2022-12-07T01:22:58;2.70;99.90
18131;DHT22;9191;54.324;10.126;2022-12-07T01:25:25;2.80;99.90
18131;DHT22;9191;54.324;10.126;2022-12-07T01:27:52;2.80;99.90
18131;DHT22;9191;54.324;10.126;2022-12-07T01:30:20;2.90;99.90
18131;DHT22;9191;54.324;10.126;2022-12-07T01:32:47;2.90;99.90
18131;DHT22;9191;54.324;10.126;2022-12-07T01:35:14;2.90;99.90
18131;DHT22;9191;54.324;10.126;2022-12-07T01:37:41;3.00;99.90
18131;DHT22;9191;54.324;10.126;2022-12-07T01:40:08;3.00;99.90
18131;DHT22;9191;54.324;10.126;2022-12-07T01:42:34;3.10;99.90
18131;DHT22;9191;54.324;10.126;2022-12-07T01:47:59;3.00;99.90
18131;DHT22;9191;54.324;10.126;2022-12-07T01:50:26;3.00;99.90
18131;DHT22;9191;54.324;10.126;2022-12-07T01:52:57;3.00;99.90
18131;DHT22;9191;54.324;10.126;2022-12-07T01:55:26;3.00;99.90
18131;DHT22;9191;54.324;10.126;2022-12-07T01:57:53;2.90;99.90
18131;DHT22;9191;54.324;10.126;2022-12-07T02:00:20;2.90;99.90
18131;DHT22;9191;54.324;10.126;2022-12-07T02:02:47;2.90;99.90
18131;DHT22;9191;54.324;10.126;2022-12-07T02:05:17;2.80;99.90
18131;DHT22;9191;54.324;10.126;2022-12-07T02:07:46;2.80;99.90
18131;DHT22;9191;54.324;10.126;2022-12-07T02:10:14;2.80;99.90
18131;DHT22;9191;54.324;10.126;2022-12-07T02:12:41;2.80;99.90
18131;DHT22;9191;54.324;10.126;2022-12-07T02:15:09;2.90;99.90
18131;DHT22;9191;54.324;10.126;2022-12-07T02:17:37;2.90;99.90
18131;DHT22;9191;54.324;10.126;2022-12-07T02:20:11;2.90;99.90
18131;DHT22;9191;54.324;10.126;2022-12-07T02:22:46;2.90;99.90
18131;DHT22;9191;54.324;10.126;2022-12-07T02:25:20;3.00;99.90
18131;DHT22;9191;54.324;10.126;2022-12-07T02:27:50;2.90;99.90
18131;DHT22;9191;54.324;10.126;2022-12-07T02:30:20;2.90;99.90
18131;DHT22;9191;54.324;10.126;2022-12-07T02:32:51;2.80;99.90
18131;DHT22;9191;54.324;10.126;2022-12-07T02:35:25;2.90;99.90
18131;DHT22;9191;54.324;10.126;2022-12-07T02:37:58;2.90;99.90
18131;DHT22;9191;54.324;10.126;2022-12-07T02:40:29;2.90;99.90
18131;DHT22;9191;54.324;10.126;2022-12-07T02:42:58;2.90;99.90
18131;DHT22;9191;54.324;10.126;2022-12-07T02:45:27;2.80;99.90
18131;DHT22;9191;54.324;10.126;2022-12-07T02:47:56;2.70;99.90
18131;DHT22;9191;54.324;10.126;2022-12-07T02:50:24;2.70;99.90
18131;DHT22;9191;54.324;10.126;2022-12-07T02:52:51;2.70;99.90
18131;DHT22;9191;54.324;10.126;2022-12-07T02:55:18;2.70;99.90
18131;DHT22;9191;54.324;10.126;2022-12-07T02:57:49;2.80;99.90
18131;DHT22;9191;54.324;10.126;2022-12-07T03:00:20;2.90;99.90
18131;DHT22;9191;54.324;10.126;2022-12-07T03:02:52;2.90;99.90
18131;DHT22;9191;54.324;10.126;2022-12-07T03:05:31;2.90;99.90
18131;DHT22;9191;54.324;10.126;2022-12-07T03:08:02;2.80;99.90
18131;DHT22;9191;54.324;10.126;2022-12-07T03:10:33;2.70;99.90
18131;DHT22;9191;54.324;10.126;2022-12-07T03:13:03;2.70;99.90
18131;DHT22;9191;54.324;10.126;2022-12-07T03:15:31;2.70;99.90
18131;DHT22;9191;54.324;10.126;2022-12-07T03:18:01;2.70;99.90
18131;DHT22;9191;54.324;10.126;2022-12-07T03:20:29;2.70;99.90
18131;DHT22;9191;54.324;10.126;2022-12-07T03:22:55;2.50;99.90
18131;DHT22;9191;54.324;10.126;2022-12-07T03:25:23;2.60;99.90
18131;DHT22;9191;54.324;10.126;2022-12-07T03:27:53;2.60;99.90
18131;DHT22;9191;54.324;10.126;2022-12-07T03:30:22;2.50;99.90
18131;DHT22;9191;54.324;10.126;2022-12-07T03:32:49;2.50;99.90
18131;DHT22;9191;54.324;10.126;2022-12-07T03:35:19;2.50;99.90
18131;DHT22;9191;54.324;10.126;2022-12-07T03:37:49;2.50;99.90
18131;DHT22;9191;54.324;10.126;2022-12-07T03:40:18;2.40;99.90
18131;DHT22;9191;54.324;10.126;2022-12-07T03:42:47;2.40;99.90
18131;DHT22;9191;54.324;10.126;2022-12-07T03:45:13;2.40;99.90
18131;DHT22;9191;54.324;10.126;2022-12-07T03:47:42;2.40;99.90
18131;DHT22;9191;54.324;10.126;2022-12-07T03:50:12;2.40;99.90
18131;DHT22;9191;54.324;10.126;2022-12-07T03:52:42;2.40;99.90
18131;DHT22;9191;54.324;10.126;2022-12-07T03:55:11;2.40;99.90
18131;DHT22;9191;54.324;10.126;2022-12-07T03:57:41;2.30;99.90
18131;DHT22;9191;54.324;10.126;2022-12-07T04:00:12;2.30;99.90
18131;DHT22;9191;54.324;10.126;2022-12-07T04:02:51;2.30;99.90
18131;DHT22;9191;54.324;10.126;2022-12-07T04:05:20;2.30;99.90
18131;DHT22;9191;54.324;10.126;2022-12-07T04:07:48;2.20;99.90
18131;DHT22;9191;54.324;10.126;2022-12-07T04:10:15;2.20;99.90
18131;DHT22;9191;54.324;10.126;2022-12-07T04:12:42;2.20;99.90
18131;DHT22;9191;54.324;10.126;2022-12-07T04:15:09;2.20;99.90
18131;DHT22;9191;54.324;10.126;2022-12-07T04:17:36;2.40;99.90
18131;DHT22;9191;54.324;10.126;2022-12-07T04:20:06;2.30;99.90
18131;DHT22;9191;54.324;10.126;2022-12-07T04:22:33;2.40;99.90
18131;DHT22;9191;54.324;10.126;2022-12-07T04:25:01;2.40;99.90
18131;DHT22;9191;54.324;10.126;2022-12-07T04:27:28;2.20;99.90
18131;DHT22;9191;54.324;10.126;2022-12-07T04:29:54;2.20;99.90
18131;DHT22;9191;54.324;10.126;2022-12-07T04:32:24;2.20;99.90
18131;DHT22;9191;54.324;10.126;2022-12-07T04:34:51;2.20;99.90
18131;DHT22;9191;54.324;10.126;2022-12-07T04:37:18;2.10;99.90
18131;DHT22;9191;54.324;10.126;2022-12-07T04:39:45;2.10;99.90
18131;DHT22;9191;54.324;10.126;2022-12-07T04:42:13;2.10;99.90
18131;DHT22;9191;54.324;10.126;2022-12-07T04:44:39;2.10;99.90
18131;DHT22;9191;54.324;10.126;2022-12-07T04:47:06;2.00;99.90
18131;DHT22;9191;54.324;10.126;2022-12-07T04:49:33;1.90;99.90
18131;DHT22;9191;54.324;10.126;2022-12-07T04:51:59;1.90;99.90
18131;DHT22;9191;54.324;10.126;2022-12-07T04:54:26;1.80;99.90
18131;DHT22;9191;54.324;10.126;2022-12-07T04:56:53;1.80;99.90
18131;DHT22;9191;54.324;10.126;2022-12-07T04:59:21;1.70;99.90
18131;DHT22;9191;54.324;10.126;2022-12-07T05:01:50;1.60;99.90
18131;DHT22;9191;54.324;10.126;2022-12-07T05:04:19;1.60;99.90
18131;DHT22;9191;54.324;10.126;2022-12-07T05:06:48;1.60;99.90
18131;DHT22;9191;54.324;10.126;2022-12-07T05:09:15;1.60;99.90
18131;DHT22;9191;54.324;10.126;2022-12-07T05:11:41;1.60;99.90
18131;DHT22;9191;54.324;10.126;2022-12-07T05:14:10;1.80;99.90
18131;DHT22;9191;54.324;10.126;2022-12-07T05:16:39;1.80;99.90
18131;DHT22;9191;54.324;10.126;2022-12-07T05:19:06;1.80;99.90
18131;DHT22;9191;54.324;10.126;2022-12-07T05:21:33;1.70;99.90
18131;DHT22;9191;54.324;10.126;2022-12-07T05:24:00;1.70;99.90
18131;DHT22;9191;54.324;10.126;2022-12-07T05:26:26;1.80;99.90
18131;DHT22;9191;54.324;10.126;2022-12-07T05:28:54;1.70;99.90
18131;DHT22;9191;54.324;10.126;2022-12-07T05:31:21;1.80;99.90
18131;DHT22;9191;54.324;10.126;2022-12-07T05:33:49;1.70;99.90
18131;DHT22;9191;54.324;10.126;2022-12-07T05:36:16;1.70;99.90
18131;DHT22;9191;54.324;10.126;2022-12-07T05:38:46;1.70;99.90
18131;DHT22;9191;54.324;10.126;2022-12-07T05:41:13;1.70;99.90
18131;DHT22;9191;54.324;10.126;2022-12-07T05:43:54;1.70;99.90
18131;DHT22;9191;54.324;10.126;2022-12-07T05:46:21;1.70;99.90
18131;DHT22;9191;54.324;10.126;2022-12-07T05:48:52;1.80;99.90
18131;DHT22;9191;54.324;10.126;2022-12-07T05:51:19;1.60;99.90
18131;DHT22;9191;54.324;10.126;2022-12-07T05:53:45;1.60;99.90
18131;DHT22;9191;54.324;10.126;2022-12-07T05:56:12;1.50;99.90
18131;DHT22;9191;54.324;10.126;2022-12-07T05:58:39;1.50;99.90
18131;DHT22;9191;54.324;10.126;2022-12-07T06:01:23;1.50;99.90
18131;DHT22;9191;54.324;10.126;2022-12-07T06:03:50;1.50;99.90
18131;DHT22;9191;54.324;10.126;2022-12-07T06:06:18;1.40;99.90
18131;DHT22;9191;54.324;10.126;2022-12-07T06:08:44;1.40;99.90
18131;DHT22;9191;54.324;10.126;2022-12-07T06:11:11;1.70;99.90
18131;DHT22;9191;54.324;10.126;2022-12-07T06:13:55;1.80;99.90
18131;DHT22;9191;54.324;10.126;2022-12-07T06:16:22;1.70;99.90
18131;DHT22;9191;54.324;10.126;2022-12-07T06:18:49;1.80;99.90
18131;DHT22;9191;54.324;10.126;2022-12-07T06:21:16;1.90;99.90
18131;DHT22;9191;54.324;10.126;2022-12-07T06:23:49;1.90;99.90
18131;DHT22;9191;54.324;10.126;2022-12-07T06:26:19;2.00;99.90
18131;DHT22;9191;54.324;10.126;2022-12-07T06:28:45;1.90;99.90
18131;DHT22;9191;54.324;10.126;2022-12-07T06:31:12;1.80;99.90
18131;DHT22;9191;54.324;10.126;2022-12-07T06:33:39;1.80;99.90
18131;DHT22;9191;54.324;10.126;2022-12-07T06:36:06;1.90;99.90
18131;DHT22;9191;54.324;10.126;2022-12-07T06:38:33;1.90;99.90
18131;DHT22;9191;54.324;10.126;2022-12-07T06:41:01;2.00;99.90
18131;DHT22;9191;54.324;10.126;2022-12-07T06:43:27;1.80;99.90
18131;DHT22;9191;54.324;10.126;2022-12-07T06:45:54;1.70;99.90
18131;DHT22;9191;54.324;10.126;2022-12-07T06:48:21;1.60;99.90
18131;DHT22;9191;54.324;10.126;2022-12-07T06:50:48;1.50;99.90
18131;DHT22;9191;54.324;10.126;2022-12-07T06:53:15;1.50;99.90
18131;DHT22;9191;54.324;10.126;2022-12-07T06:55:42;1.50;99.90
18131;DHT22;9191;54.324;10.126;2022-12-07T06:58:10;1.50;99.90
18131;DHT22;9191;54.324;10.126;2022-12-07T07:00:41;1.50;99.90
18131;DHT22;9191;54.324;10.126;2022-12-07T07:03:08;1.60;99.90
18131;DHT22;9191;54.324;10.126;2022-12-07T07:05:34;1.70;99.90
18131;DHT22;9191;54.324;10.126;2022-12-07T07:08:04;1.80;99.90
18131;DHT22;9191;54.324;10.126;2022-12-07T07:10:31;1.80;99.90
18131;DHT22;9191;54.324;10.126;2022-12-07T07:15:34;2.00;99.90
18131;DHT22;9191;54.324;10.126;2022-12-07T07:18:03;2.00;99.90
18131;DHT22;9191;54.324;10.126;2022-12-07T07:20:30;1.90;99.90
18131;DHT22;9191;54.324;10.126;2022-12-07T07:22:56;1.90;99.90
18131;DHT22;9191;54.324;10.126;2022-12-07T07:25:26;1.80;99.90
18131;DHT22;9191;54.324;10.126;2022-12-07T07:27:53;1.80;99.90
18131;DHT22;9191;54.324;10.126;2022-12-07T07:30:20;1.80;99.90
18131;DHT22;9191;54.324;10.126;2022-12-07T07:32:48;1.80;99.90
18131;DHT22;9191;54.324;10.126;2022-12-07T07:35:15;1.80;99.90
18131;DHT22;9191;54.324;10.126;2022-12-07T07:37:44;1.80;99.90
18131;DHT22;9191;54.324;10.126;2022-12-07T07:40:11;2.00;99.90
18131;DHT22;9191;54.324;10.126;2022-12-07T07:42:38;1.90;99.90
18131;DHT22;9191;54.324;10.126;2022-12-07T07:45:07;2.00;99.90
18131;DHT22;9191;54.324;10.126;2022-12-07T07:47:34;1.90;99.90
18131;DHT22;9191;54.324;10.126;2022-12-07T07:50:03;1.90;99.90
18131;DHT22;9191;54.324;10.126;2022-12-07T07:52:30;2.00;99.90
18131;DHT22;9191;54.324;10.126;2022-12-07T07:54:57;2.00;99.90
18131;DHT22;9191;54.324;10.126;2022-12-07T07:57:24;2.10;99.90
18131;DHT22;9191;54.324;10.126;2022-12-07T07:59:50;2.20;99.90
18131;DHT22;9191;54.324;10.126;2022-12-07T08:02:18;2.30;99.90
18131;DHT22;9191;54.324;10.126;2022-12-07T08:04:45;2.40;99.90
18131;DHT22;9191;54.324;10.126;2022-12-07T08:07:16;2.50;99.90
18131;DHT22;9191;54.324;10.126;2022-12-07T08:09:45;2.60;99.90
18131;DHT22;9191;54.324;10.126;2022-12-07T08:12:15;2.60;99.90
18131;DHT22;9191;54.324;10.126;2022-12-07T08:14:41;2.70;99.90
18131;DHT22;9191;54.324;10.126;2022-12-07T08:17:08;2.60;99.90
18131;DHT22;9191;54.324;10.126;2022-12-07T08:19:38;2.60;99.90
18131;DHT22;9191;54.324;10.126;2022-12-07T08:22:07;2.60;99.90
18131;DHT22;9191;54.324;10.126;2022-12-07T08:24:35;2.70;99.90
18131;DHT22;9191;54.324;10.126;2022-12-07T08:27:02;2.60;99.90
18131;DHT22;9191;54.324;10.126;2022-12-07T08:29:29;2.50;99.90
18131;DHT22;9191;54.324;10.126;2022-12-07T08:31:56;2.50;99.90
18131;DHT22;9191;54.324;10.126;2022-12-07T08:34:23;2.50;99.90
18131;DHT22;9191;54.324;10.126;2022-12-07T08:36:49;2.50;99.90
18131;DHT22;9191;54.324;10.126;2022-12-07T08:39:16;2.60;99.90
18131;DHT22;9191;54.324;10.126;2022-12-07T08:41:44;2.40;99.90
18131;DHT22;9191;54.324;10.126;2022-12-07T08:44:11;2.60;99.90
18131;DHT22;9191;54.324;10.126;2022-12-07T08:46:38;2.60;99.90
18131;DHT22;9191;54.324;10.126;2022-12-07T08:49:08;2.80;99.90
18131;DHT22;9191;54.324;10.126;2022-12-07T08:51:35;2.90;99.90
18131;DHT22;9191;54.324;10.126;2022-12-07T08:54:04;2.80;99.90
18131;DHT22;9191;54.324;10.126;2022-12-07T08:56:31;2.70;99.90
18131;DHT22;9191;54.324;10.126;2022-12-07T08:59:00;2.70;99.90
18131;DHT22;9191;54.324;10.126;2022-12-07T09:01:26;2.90;99.90
18131;DHT22;9191;54.324;10.126;2022-12-07T09:03:54;2.70;99.90
18131;DHT22;9191;54.324;10.126;2022-12-07T09:06:20;2.70;99.90
18131;DHT22;9191;54.324;10.126;2022-12-07T09:08:49;2.80;99.90
18131;DHT22;9191;54.324;10.126;2022-12-07T09:11:17;2.80;99.90
18131;DHT22;9191;54.324;10.126;2022-12-07T09:13:43;2.90;99.90
18131;DHT22;9191;54.324;10.126;2022-12-07T09:16:12;2.90;99.90
18131;DHT22;9191;54.324;10.126;2022-12-07T09:18:39;3.10;99.90
18131;DHT22;9191;54.324;10.126;2022-12-07T09:21:06;3.00;99.90
18131;DHT22;9191;54.324;10.126;2022-12-07T09:23:32;3.10;99.90
18131;DHT22;9191;54.324;10.126;2022-12-07T09:25:59;3.00;99.90
18131;DHT22;9191;54.324;10.126;2022-12-07T09:28:26;3.10;99.90
18131;DHT22;9191;54.324;10.126;2022-12-07T09:30:53;3.10;99.90
18131;DHT22;9191;54.324;10.126;2022-12-07T09:33:21;3.00;99.90
18131;DHT22;9191;54.324;10.126;2022-12-07T09:35:48;3.10;99.90
18131;DHT22;9191;54.324;10.126;2022-12-07T09:38:16;3.00;99.90
18131;DHT22;9191;54.324;10.126;2022-12-07T09:40:49;3.00;99.90
18131;DHT22;9191;54.324;10.126;2022-12-07T09:43:16;3.10;99.90
18131;DHT22;9191;54.324;10.126;2022-12-07T09:45:46;3.10;99.90
18131;DHT22;9191;54.324;10.126;2022-12-07T09:48:15;3.50;99.90
18131;DHT22;9191;54.324;10.126;2022-12-07T09:50:45;6.00;99.90
18131;DHT22;9191;54.324;10.126;2022-12-07T09:53:19;7.00;99.90
18131;DHT22;9191;54.324;10.126;2022-12-07T09:55:47;6.70;99.90
18131;DHT22;9191;54.324;10.126;2022-12-07T09:58:19;6.20;99.90
18131;DHT22;9191;54.324;10.126;2022-12-07T10:00:47;5.60;99.90
18131;DHT22;9191;54.324;10.126;2022-12-07T10:03:14;4.60;99.90
18131;DHT22;9191;54.324;10.126;2022-12-07T10:05:42;4.10;99.90
18131;DHT22;9191;54.324;10.126;2022-12-07T10:08:12;3.80;99.90
18131;DHT22;9191;54.324;10.126;2022-12-07T10:10:40;3.60;99.90
18131;DHT22;9191;54.324;10.126;2022-12-07T10:13:08;3.50;99.90
18131;DHT22;9191;54.324;10.126;2022-12-07T10:15:46;3.50;99.90
18131;DHT22;9191;54.324;10.126;2022-12-07T10:18:20;3.40;99.90
18131;DHT22;9191;54.324;10.126;2022-12-07T10:21:02;3.30;99.90
18131;DHT22;9191;54.324;10.126;2022-12-07T10:23:35;3.30;99.90
18131;DHT22;9191;54.324;10.126;2022-12-07T10:26:25;3.30;99.90
18131;DHT22;9191;54.324;10.126;2022-12-07T10:28:53;3.40;99.90
18131;DHT22;9191;54.324;10.126;2022-12-07T10:31:21;3.40;99.90
18131;DHT22;9191;54.324;10.126;2022-12-07T10:33:49;3.50;99.90
18131;DHT22;9191;54.324;10.126;2022-12-07T10:36:22;3.50;99.90
18131;DHT22;9191;54.324;10.126;2022-12-07T10:38:53;3.50;99.90
18131;DHT22;9191;54.324;10.126;2022-12-07T10:41:24;3.40;99.90
18131;DHT22;9191;54.324;10.126;2022-12-07T10:43:52;3.40;99.90
18131;DHT22;9191;54.324;10.126;2022-12-07T10:46:32;3.40;99.90
18131;DHT22;9191;54.324;10.126;2022-12-07T10:49:08;3.30;99.90
18131;DHT22;9191;54.324;10.126;2022-12-07T10:51:40;3.40;99.90
18131;DHT22;9191;54.324;10.126;2022-12-07T10:54:16;3.40;99.90
18131;DHT22;9191;54.324;10.126;2022-12-07T10:56:57;3.50;99.90
18131;DHT22;9191;54.324;10.126;2022-12-07T10:59:31;3.60;99.90
18131;DHT22;9191;54.324;10.126;2022-12-07T11:02:06;3.60;99.90
18131;DHT22;9191;54.324;10.126;2022-12-07T11:04:48;3.60;99.90
18131;DHT22;9191;54.324;10.126;2022-12-07T11:07:33;3.60;99.90
18131;DHT22;9191;54.324;10.126;2022-12-07T11:10:02;3.60;99.90
18131;DHT22;9191;54.324;10.126;2022-12-07T11:12:36;3.70;99.90
18131;DHT22;9191;54.324;10.126;2022-12-07T11:15:11;3.70;99.90
18131;DHT22;9191;54.324;10.126;2022-12-07T11:17:42;3.60;99.90
18131;DHT22;9191;54.324;10.126;2022-12-07T11:20:14;3.60;99.90
18131;DHT22;9191;54.324;10.126;2022-12-07T11:22:47;3.60;99.90
18131;DHT22;9191;54.324;10.126;2022-12-07T11:25:18;3.60;99.90
18131;DHT22;9191;54.324;10.126;2022-12-07T11:27:49;3.60;99.90
18131;DHT22;9191;54.324;10.126;2022-12-07T11:30:19;3.60;99.90
18131;DHT22;9191;54.324;10.126;2022-12-07T11:32:53;3.80;99.90
18131;DHT22;9191;54.324;10.126;2022-12-07T11:35:23;3.80;99.90
18131;DHT22;9191;54.324;10.126;2022-12-07T11:37:55;3.80;99.90
18131;DHT22;9191;54.324;10.126;2022-12-07T11:40:24;3.60;99.90
18131;DHT22;9191;54.324;10.126;2022-12-07T11:42:55;3.60;99.90
18131;DHT22;9191;54.324;10.126;2022-12-07T11:45:25;3.70;99.90
18131;DHT22;9191;54.324;10.126;2022-12-07T11:47:53;3.60;99.90
18131;DHT22;9191;54.324;10.126;2022-12-07T11:50:23;3.60;99.90
18131;DHT22;9191;54.324;10.126;2022-12-07T11:52:53;3.70;99.90
18131;DHT22;9191;54.324;10.126;2022-12-07T11:55:24;3.80;99.90
18131;DHT22;9191;54.324;10.126;2022-12-07T11:57:58;3.80;99.90
18131;DHT22;9191;54.324;10.126;2022-12-07T12:00:28;3.80;99.90
18131;DHT22;9191;54.324;10.126;2022-12-07T12:02:55;3.80;99.90
18131;DHT22;9191;54.324;10.126;2022-12-07T12:05:24;3.80;99.90
18131;DHT22;9191;54.324;10.126;2022-12-07T12:07:54;3.90;99.90
18131;DHT22;9191;54.324;10.126;2022-12-07T12:10:24;3.90;99.90
18131;DHT22;9191;54.324;10.126;2022-12-07T12:15:42;3.90;99.90
18131;DHT22;9191;54.324;10.126;2022-12-07T12:18:14;3.90;99.90
18131;DHT22;9191;54.324;10.126;2022-12-07T12:20:46;3.80;99.90
18131;DHT22;9191;54.324;10.126;2022-12-07T12:23:23;3.80;99.90
18131;DHT22;9191;54.324;10.126;2022-12-07T12:25:50;3.80;99.90
18131;DHT22;9191;54.324;10.126;2022-12-07T12:28:20;3.90;99.90
18131;DHT22;9191;54.324;10.126;2022-12-07T12:36:22;3.80;99.90
18131;DHT22;9191;54.324;10.126;2022-12-07T12:38:52;3.80;99.90
18131;DHT22;9191;54.324;10.126;2022-12-07T12:44:39;3.60;99.90
18131;DHT22;9191;54.324;10.126;2022-12-07T12:47:37;3.60;99.90
18131;DHT22;9191;54.324;10.126;2022-12-07T12:50:10;3.50;99.90
18131;DHT22;9191;54.324;10.126;2022-12-07T13:03:53;3.40;99.90
18131;DHT22;9191;54.324;10.126;2022-12-07T13:06:31;3.40;99.90
18131;DHT22;9191;54.324;10.126;2022-12-07T13:08:59;3.40;99.90
18131;DHT22;9191;54.324;10.126;2022-12-07T13:11:28;3.30;99.90
18131;DHT22;9191;54.324;10.126;2022-12-07T13:16:39;3.20;99.90
18131;DHT22;9191;54.324;10.126;2022-12-07T13:21:58;3.00;99.90
18131;DHT22;9191;54.324;10.126;2022-12-07T13:24:25;3.00;99.90
18131;DHT22;9191;54.324;10.126;2022-12-07T13:26:52;3.00;99.90
18131;DHT22;9191;54.324;10.126;2022-12-07T13:29:25;2.90;99.90
18131;DHT22;9191;54.324;10.126;2022-12-07T13:31:52;2.80;99.90
18131;DHT22;9191;54.324;10.126;2022-12-07T13:34:30;2.90;99.90
18131;DHT22;9191;54.324;10.126;2022-12-07T13:36:58;2.90;99.90
18131;DHT22;9191;54.324;10.126;2022-12-07T13:39:26;2.80;99.90
18131;DHT22;9191;54.324;10.126;2022-12-07T13:41:54;2.90;99.90
18131;DHT22;9191;54.324;10.126;2022-12-07T13:44:26;2.90;99.90
18131;DHT22;9191;54.324;10.126;2022-12-07T13:46:55;2.80;99.90
18131;DHT22;9191;54.324;10.126;2022-12-07T13:49:23;2.80;99.90
18131;DHT22;9191;54.324;10.126;2022-12-07T13:51:50;2.80;99.90
18131;DHT22;9191;54.324;10.126;2022-12-07T13:54:19;2.80;99.90
18131;DHT22;9191;54.324;10.126;2022-12-07T13:56:47;2.80;99.90
18131;DHT22;9191;54.324;10.126;2022-12-07T13:59:16;2.70;99.90
18131;DHT22;9191;54.324;10.126;2022-12-07T14:01:44;2.70;99.90
18131;DHT22;9191;54.324;10.126;2022-12-07T14:04:31;2.60;99.90
18131;DHT22;9191;54.324;10.126;2022-12-07T14:06:58;2.60;99.90
18131;DHT22;9191;54.324;10.126;2022-12-07T14:09:27;2.50;99.90
18131;DHT22;9191;54.324;10.126;2022-12-07T14:11:55;2.40;99.90
18131;DHT22;9191;54.324;10.126;2022-12-07T14:14:23;2.40;99.90
18131;DHT22;9191;54.324;10.126;2022-12-07T14:17:01;2.40;99.90
18131;DHT22;9191;54.324;10.126;2022-12-07T14:19:41;2.40;99.90
18131;DHT22;9191;54.324;10.126;2022-12-07T14:22:09;2.40;99.90
18131;DHT22;9191;54.324;10.126;2022-12-07T14:24:42;2.40;99.90
18131;DHT22;9191;54.324;10.126;2022-12-07T14:27:16;2.40;99.90
18131;DHT22;9191;54.324;10.126;2022-12-07T14:29:43;2.40;99.90
18131;DHT22;9191;54.324;10.126;2022-12-07T14:32:20;2.30;99.90
18131;DHT22;9191;54.324;10.126;2022-12-07T14:34:58;2.30;99.90
18131;DHT22;9191;54.324;10.126;2022-12-07T14:37:26;2.30;99.90
18131;DHT22;9191;54.324;10.126;2022-12-07T14:39:55;2.20;99.90
18131;DHT22;9191;54.324;10.126;2022-12-07T14:42:24;2.20;99.90
18131;DHT22;9191;54.324;10.126;2022-12-07T14:44:51;2.20;99.90
18131;DHT22;9191;54.324;10.126;2022-12-07T14:47:18;2.10;99.90
18131;DHT22;9191;54.324;10.126;2022-12-07T14:49:44;2.20;99.90
18131;DHT22;9191;54.324;10.126;2022-12-07T14:52:12;2.20;99.90
18131;DHT22;9191;54.324;10.126;2022-12-07T14:54:40;2.10;99.90
18131;DHT22;9191;54.324;10.126;2022-12-07T14:57:09;2.20;99.90
18131;DHT22;9191;54.324;10.126;2022-12-07T14:59:35;2.10;99.90
18131;DHT22;9191;54.324;10.126;2022-12-07T15:02:02;2.10;99.90
18131;DHT22;9191;54.324;10.126;2022-12-07T15:04:29;2.10;99.90
18131;DHT22;9191;54.324;10.126;2022-12-07T15:06:56;2.00;99.90
18131;DHT22;9191;54.324;10.126;2022-12-07T15:09:22;1.90;99.90
18131;DHT22;9191;54.324;10.126;2022-12-07T15:11:49;1.90;99.90
18131;DHT22;9191;54.324;10.126;2022-12-07T15:14:17;2.00;99.90
18131;DHT22;9191;54.324;10.126;2022-12-07T15:16:44;1.90;99.90
18131;DHT22;9191;54.324;10.126;2022-12-07T15:19:12;1.80;99.90
18131;DHT22;9191;54.324;10.126;2022-12-07T15:21:39;1.90;99.90
18131;DHT22;9191;54.324;10.126;2022-12-07T15:24:07;1.90;99.90
18131;DHT22;9191;54.324;10.126;2022-12-07T15:26:34;1.90;99.90
18131;DHT22;9191;54.324;10.126;2022-12-07T15:29:01;2.00;99.90
18131;DHT22;9191;54.324;10.126;2022-12-07T15:31:29;2.00;99.90
18131;DHT22;9191;54.324;10.126;2022-12-07T15:33:55;1.90;99.90
18131;DHT22;9191;54.324;10.126;2022-12-07T15:36:23;1.90;99.90
18131;DHT22;9191;54.324;10.126;2022-12-07T15:38:50;1.80;99.90
18131;DHT22;9191;54.324;10.126;2022-12-07T15:41:17;1.80;99.90
18131;DHT22;9191;54.324;10.126;2022-12-07T15:43:44;1.80;99.90
18131;DHT22;9191;54.324;10.126;2022-12-07T15:46:32;1.80;99.90
18131;DHT22;9191;54.324;10.126;2022-12-07T15:48:59;1.80;99.90
18131;DHT22;9191;54.324;10.126;2022-12-07T15:51:26;1.90;99.90
18131;DHT22;9191;54.324;10.126;2022-12-07T15:53:53;2.10;99.90
18131;DHT22;9191;54.324;10.126;2022-12-07T15:56:24;2.90;99.90
18131;DHT22;9191;54.324;10.126;2022-12-07T15:58:58;2.60;99.90
18131;DHT22;9191;54.324;10.126;2022-12-07T16:01:28;2.30;99.90
18131;DHT22;9191;54.324;10.126;2022-12-07T16:04:00;2.20;99.90
18131;DHT22;9191;54.324;10.126;2022-12-07T16:06:31;2.00;99.90
18131;DHT22;9191;54.324;10.126;2022-12-07T16:09:12;1.90;99.90
18131;DHT22;9191;54.324;10.126;2022-12-07T16:11:41;1.90;99.90
18131;DHT22;9191;54.324;10.126;2022-12-07T16:14:08;1.70;99.90
18131;DHT22;9191;54.324;10.126;2022-12-07T16:16:35;1.70;99.90
18131;DHT22;9191;54.324;10.126;2022-12-07T16:19:03;1.60;99.90
18131;DHT22;9191;54.324;10.126;2022-12-07T16:21:29;1.70;99.90
18131;DHT22;9191;54.324;10.126;2022-12-07T16:23:57;1.70;99.90
18131;DHT22;9191;54.324;10.126;2022-12-07T16:26:26;1.70;99.90
18131;DHT22;9191;54.324;10.126;2022-12-07T16:28:53;1.70;99.90
18131;DHT22;9191;54.324;10.126;2022-12-07T16:31:21;1.60;99.90